Time;durP1;ratioP1;P1;durP2;ratioP2;P2;SDS_P1;SDS_P2;PMS_P1;PMS_P2;Temp;Humidity;BMP_temperature;BMP_pressure;BME280_temperature;BME280_humidity;BME280_pressure;Samples;Min_cycle;Max_cycle;Signal;HPM_P1;HPM_P2
2022/01/04 00:00:07;;;;;;;17.30;2.63;;;6.80;87.90;;;;;;5079833;28;20045;-75
2022/01/04 00:02:40;;;;;;;27.05;2.80;;;6.80;87.90;;;;;;5063571;28;20036;-76
2022/01/04 00:05:09;;;;;;;20.45;2.95;;;6.80;87.90;;;;;;5086004;28;20055;-75
2022/01/04 00:07:37;;;;;;;19.20;2.10;;;6.80;87.90;;;;;;5046565;28;20072;-75
2022/01/04 00:10:08;;;;;;;19.60;2.65;;;6.80;88.00;;;;;;5072824;28;20119;-75
2022/01/04 00:15:23;;;;;;;13.77;2.10;;;6.80;88.00;;;;;;5080684;28;20044;-75
2022/01/04 00:17:52;;;;;;;17.23;2.38;;;6.80;87.90;;;;;;5087339;28;20047;-75
2022/01/04 00:20:19;;;;;;;19.92;2.22;;;6.90;88.00;;;;;;5086979;28;20056;-74
2022/01/04 00:22:48;;;;;;;22.50;2.83;;;6.90;87.90;;;;;;5077281;28;20040;-74
2022/01/04 00:25:16;;;;;;;15.85;2.20;;;7.00;88.00;;;;;;5075916;28;20462;-75
2022/01/04 00:27:44;;;;;;;19.50;2.80;;;7.00;87.90;;;;;;5081868;28;20040;-75
2022/01/04 00:30:12;;;;;;;20.45;2.17;;;7.00;87.80;;;;;;5073098;28;20040;-75
2022/01/04 00:32:40;;;;;;;14.88;1.92;;;7.00;87.80;;;;;;5077931;28;20047;-76
2022/01/04 00:35:08;;;;;;;24.67;2.35;;;7.10;87.90;;;;;;5076389;28;20048;-74
2022/01/04 00:37:36;;;;;;;17.83;2.78;;;7.10;87.90;;;;;;5082295;28;20044;-75
2022/01/04 00:40:08;;;;;;;17.65;2.25;;;7.10;87.80;;;;;;5066531;28;20517;-75
2022/01/04 00:42:35;;;;;;;19.10;2.38;;;7.10;87.80;;;;;;5069725;28;20032;-74
2022/01/04 00:45:04;;;;;;;15.38;2.25;;;7.10;87.80;;;;;;5078987;28;20048;-75
2022/01/04 00:49:09;;;;;;;19.08;2.42;;;7.10;87.90;;;;;;5072119;28;20383;-76
2022/01/04 00:50:33;;;;;;;13.18;2.05;;;7.10;88.00;;;;;;5079991;28;20059;-74
2022/01/04 00:53:02;;;;;;;15.63;1.83;;;7.00;88.00;;;;;;5080495;28;20051;-74
2022/01/04 00:55:30;;;;;;;9.80;1.83;;;7.00;88.10;;;;;;5066453;28;20052;-74
2022/01/04 00:57:59;;;;;;;14.32;1.58;;;7.10;88.10;;;;;;5085301;28;20039;-74
2022/01/04 01:00:27;;;;;;;15.63;2.53;;;7.10;88.10;;;;;;5085616;28;20063;-75
2022/01/04 01:02:55;;;;;;;18.23;2.22;;;7.10;88.10;;;;;;5081865;28;20431;-75
2022/01/04 01:05:25;;;;;;;17.17;1.98;;;7.00;88.30;;;;;;5077551;28;20051;-75
2022/01/04 01:07:53;;;;;;;14.02;1.67;;;7.00;88.30;;;;;;5074851;28;20049;-74
2022/01/04 01:13:10;;;;;;;19.88;2.38;;;7.10;88.50;;;;;;5073449;28;20045;-75
2022/01/04 01:15:40;;;;;;;16.58;2.08;;;7.00;88.40;;;;;;5080466;28;20047;-74
2022/01/04 01:18:10;;;;;;;11.85;1.80;;;7.10;88.40;;;;;;5090904;28;20056;-75
2022/01/04 01:20:37;;;;;;;15.60;1.88;;;7.10;88.50;;;;;;5090815;28;20410;-74
2022/01/04 01:23:05;;;;;;;16.55;1.67;;;7.00;88.50;;;;;;5076263;28;20060;-75
2022/01/04 01:25:33;;;;;;;14.95;2.38;;;7.00;88.50;;;;;;5088101;28;20443;-75
2022/01/04 01:28:01;;;;;;;14.48;1.83;;;7.00;88.60;;;;;;5084522;28;20051;-75
2022/01/04 01:30:30;;;;;;;19.52;2.42;;;6.90;88.60;;;;;;5078514;28;20479;-75
2022/01/04 01:32:58;;;;;;;20.02;2.80;;;6.90;88.70;;;;;;5075365;28;20044;-75
2022/01/04 01:35:25;;;;;;;18.63;2.67;;;6.80;88.90;;;;;;5083736;28;20055;-75
2022/01/04 01:37:53;;;;;;;17.30;2.63;;;6.80;88.90;;;;;;5089111;28;20056;-75
2022/01/04 01:40:21;;;;;;;28.48;3.22;;;6.80;89.20;;;;;;5084749;28;20043;-75
2022/01/04 01:42:48;;;;;;;12.77;2.67;;;6.70;89.40;;;;;;5079258;28;20054;-74
2022/01/04 01:45:16;;;;;;;15.05;2.63;;;6.70;89.40;;;;;;5079309;28;20043;-75
2022/01/04 01:47:45;;;;;;;15.27;2.97;;;6.70;89.70;;;;;;5083688;28;20037;-74
2022/01/04 01:50:13;;;;;;;28.25;3.85;;;6.70;89.70;;;;;;5058766;28;20407;-74
2022/01/04 01:52:44;;;;;;;27.98;3.58;;;6.60;89.70;;;;;;5040889;28;20052;-74
2022/01/04 01:55:13;;;;;;;23.95;3.08;;;6.60;89.70;;;;;;5075463;28;20392;-75
2022/01/04 01:57:40;;;;;;;20.38;3.95;;;6.60;89.70;;;;;;5059184;28;20463;-74
2022/01/04 02:00:10;;;;;;;23.38;4.03;;;6.60;89.80;;;;;;5086008;28;20056;-75
2022/01/04 02:02:38;;;;;;;28.40;3.92;;;6.60;89.80;;;;;;5073009;28;20048;-75
2022/01/04 02:05:07;;;;;;;32.70;5.78;;;6.50;89.90;;;;;;5058017;28;20048;-75
2022/01/04 02:07:36;;;;;;;26.60;5.60;;;6.50;90.00;;;;;;5082052;28;20047;-74
2022/01/04 02:10:07;;;;;;;19.45;5.78;;;6.50;90.00;;;;;;5083625;28;20056;-75
2022/01/04 02:12:41;;;;;;;24.23;7.32;;;6.50;90.10;;;;;;5072599;28;20396;-75
2022/01/04 02:15:11;;;;;;;25.73;9.38;;;6.50;90.20;;;;;;5085978;28;20044;-75
2022/01/04 02:17:39;;;;;;;26.10;9.93;;;6.40;90.30;;;;;;5060732;28;20052;-75
2022/01/04 02:20:08;;;;;;;24.92;11.23;;;6.40;90.40;;;;;;5092492;28;20040;-75
2022/01/04 02:22:35;;;;;;;27.80;11.48;;;6.30;90.40;;;;;;5063797;28;20044;-74
2022/01/04 02:25:04;;;;;;;21.75;9.75;;;6.30;90.60;;;;;;5081247;28;20040;-74
2022/01/04 02:27:38;;;;;;;20.35;9.43;;;6.40;90.70;;;;;;5066720;28;20063;-74
2022/01/04 02:30:08;;;;;;;15.45;9.48;;;6.40;90.80;;;;;;5083891;28;20506;-74
2022/01/04 02:32:36;;;;;;;16.55;8.23;;;6.40;90.80;;;;;;5049131;28;20040;-74
2022/01/04 02:35:04;;;;;;;15.27;7.50;;;6.40;90.80;;;;;;5061515;28;20059;-74
2022/01/04 02:37:33;;;;;;;14.63;7.78;;;6.40;90.80;;;;;;5056360;28;20066;-74
2022/01/04 02:40:01;;;;;;;12.48;8.20;;;6.40;90.70;;;;;;5085248;28;20051;-74
2022/01/04 02:42:28;;;;;;;11.45;8.30;;;6.40;90.70;;;;;;5060881;28;20067;-75
2022/01/04 02:45:00;;;;;;;19.50;11.05;;;6.40;90.70;;;;;;5069577;28;20044;-74
2022/01/04 02:47:33;;;;;;;18.08;11.20;;;6.40;90.50;;;;;;5090707;28;20055;-74
2022/01/04 02:50:02;;;;;;;18.13;10.20;;;6.30;90.40;;;;;;5075490;28;20040;-74
2022/01/04 02:52:29;;;;;;;15.55;8.27;;;6.30;90.40;;;;;;5075694;28;20049;-75
2022/01/04 02:54:57;;;;;;;12.52;6.43;;;6.30;90.20;;;;;;5073773;28;20040;-74
2022/01/04 02:57:25;;;;;;;10.38;6.53;;;6.20;90.20;;;;;;5055952;28;20048;-74
2022/01/04 02:59:52;;;;;;;21.08;8.45;;;6.20;90.10;;;;;;5064501;28;20055;-74
2022/01/04 03:02:20;;;;;;;15.73;7.28;;;6.10;90.00;;;;;;5085639;28;20037;-74
2022/01/04 03:04:48;;;;;;;9.57;6.72;;;6.00;90.00;;;;;;5056544;28;20059;-74
2022/01/04 03:07:16;;;;;;;13.65;7.47;;;5.90;90.00;;;;;;5082335;28;20052;-74
2022/01/04 03:09:44;;;;;;;13.00;7.93;;;5.80;90.00;;;;;;5077598;28;20044;-74
2022/01/04 03:12:11;;;;;;;14.73;8.45;;;5.80;90.00;;;;;;5064180;28;20032;-74
2022/01/04 03:14:39;;;;;;;18.10;8.50;;;5.80;90.00;;;;;;5081195;28;20052;-74
2022/01/04 03:17:07;;;;;;;15.88;8.32;;;5.70;90.00;;;;;;5089992;28;20621;-74
2022/01/04 03:19:34;;;;;;;13.10;8.18;;;5.70;90.10;;;;;;5073577;28;20484;-74
2022/01/04 03:22:03;;;;;;;12.02;8.45;;;5.70;90.20;;;;;;5072432;28;20529;-74
2022/01/04 03:24:31;;;;;;;16.60;10.05;;;5.60;90.20;;;;;;5086098;28;20053;-74
2022/01/04 03:26:58;;;;;;;14.90;9.30;;;5.60;90.20;;;;;;5085046;28;20047;-74
2022/01/04 03:29:26;;;;;;;15.90;8.85;;;5.60;90.30;;;;;;5078621;28;20048;-74
2022/01/04 03:31:57;;;;;;;16.48;10.80;;;5.50;90.50;;;;;;5046901;28;20055;-74
2022/01/04 03:34:25;;;;;;;17.63;12.07;;;5.40;90.60;;;;;;5080171;28;20380;-74
2022/01/04 03:36:52;;;;;;;20.40;13.07;;;5.40;90.70;;;;;;5074643;28;20074;-74
2022/01/04 03:39:20;;;;;;;12.80;10.00;;;5.30;90.70;;;;;;5073965;28;20510;-74
2022/01/04 03:41:48;;;;;;;17.95;10.70;;;5.30;90.70;;;;;;5082383;28;20056;-75
2022/01/04 03:44:19;;;;;;;14.80;12.00;;;5.20;90.80;;;;;;5072119;28;20060;-76
2022/01/04 03:46:50;;;;;;;13.25;10.68;;;5.10;90.90;;;;;;5079493;28;20060;-75
2022/01/04 03:49:18;;;;;;;5.82;4.82;;;5.00;91.00;;;;;;5039381;28;20051;-76
2022/01/04 03:51:45;;;;;;;4.00;2.97;;;4.90;90.90;;;;;;5054092;28;20048;-76
2022/01/04 03:54:14;;;;;;;2.97;1.48;;;4.80;90.80;;;;;;5068448;28;20055;-76
2022/01/04 03:56:41;;;;;;;3.85;1.20;;;4.70;90.30;;;;;;5085089;28;20048;-76
2022/01/04 03:59:09;;;;;;;1.77;1.20;;;4.50;90.00;;;;;;5089735;28;20048;-75
2022/01/04 04:01:37;;;;;;;1.90;1.05;;;4.30;89.90;;;;;;5088953;28;20040;-75
2022/01/04 04:04:05;;;;;;;1.30;1.20;;;4.30;90.00;;;;;;5069955;28;20709;-74
2022/01/04 04:06:32;;;;;;;2.70;1.67;;;4.10;90.10;;;;;;5090013;28;20036;-74
2022/01/04 04:09:00;;;;;;;1.85;1.75;;;4.00;90.20;;;;;;5071831;28;20052;-75
2022/01/04 04:11:28;;;;;;;1.33;1.23;;;4.00;90.30;;;;;;5077982;28;20048;-75
2022/01/04 04:13:55;;;;;;;1.02;0.80;;;3.90;90.40;;;;;;5080538;28;20047;-74
2022/01/04 04:16:23;;;;;;;1.02;0.80;;;3.80;90.40;;;;;;5073843;28;20407;-75
2022/01/04 04:18:51;;;;;;;1.08;1.02;;;3.80;90.40;;;;;;5072463;28;20052;-75
2022/01/04 04:21:18;;;;;;;1.00;0.75;;;3.70;90.40;;;;;;5062716;28;20088;-75
2022/01/04 04:23:46;;;;;;;0.50;0.50;;;3.60;90.30;;;;;;5080364;28;20048;-75
2022/01/04 04:26:14;;;;;;;1.70;0.80;;;3.70;90.40;;;;;;5077920;28;20047;-75
2022/01/04 04:28:42;;;;;;;3.60;0.75;;;3.60;90.50;;;;;;5079391;28;20040;-74
2022/01/04 04:31:10;;;;;;;0.68;0.68;;;3.50;90.50;;;;;;5087143;28;20486;-75
2022/01/04 04:33:37;;;;;;;1.00;0.85;;;3.50;90.40;;;;;;5088669;28;20041;-74
2022/01/04 04:36:07;;;;;;;0.93;0.80;;;3.50;90.50;;;;;;5082152;28;20055;-75
2022/01/04 04:38:36;;;;;;;0.85;0.70;;;3.50;90.60;;;;;;5083775;28;20040;-75
2022/01/04 04:41:03;;;;;;;1.63;0.73;;;3.40;90.60;;;;;;5090028;28;20052;-75
2022/01/04 04:43:31;;;;;;;1.08;1.00;;;3.40;90.70;;;;;;5090773;28;20430;-75
2022/01/04 04:45:58;;;;;;;1.58;1.00;;;3.40;90.80;;;;;;5082477;28;20047;-75
2022/01/04 04:48:27;;;;;;;0.80;0.80;;;3.50;90.80;;;;;;5072267;28;20412;-75
2022/01/04 04:50:54;;;;;;;0.60;0.60;;;3.50;90.80;;;;;;5078846;28;20040;-75
2022/01/04 04:53:22;;;;;;;0.35;0.35;;;3.50;90.80;;;;;;5084021;28;20106;-75
2022/01/04 04:55:49;;;;;;;0.40;0.40;;;3.50;90.80;;;;;;5089821;28;20063;-75
2022/01/04 04:58:17;;;;;;;0.30;0.30;;;3.50;90.70;;;;;;5088834;28;20542;-76
2022/01/04 05:00:45;;;;;;;0.50;0.50;;;3.50;90.70;;;;;;5089673;28;20601;-76
2022/01/04 05:03:13;;;;;;;3.83;0.70;;;3.50;90.30;;;;;;5090595;28;20047;-76
2022/01/04 05:05:40;;;;;;;1.95;0.70;;;3.40;90.10;;;;;;5086175;28;20048;-76
2022/01/04 05:08:08;;;;;;;0.70;0.70;;;3.30;89.90;;;;;;5085906;28;20047;-76
2022/01/04 05:10:35;;;;;;;0.85;0.85;;;3.20;89.80;;;;;;5086503;28;20056;-77
2022/01/04 05:13:03;;;;;;;0.85;0.82;;;3.10;89.80;;;;;;5084902;28;20514;-76
2022/01/04 05:15:30;;;;;;;0.80;0.80;;;3.10;89.80;;;;;;5076487;28;20040;-76
2022/01/04 05:17:58;;;;;;;0.80;0.77;;;3.10;89.80;;;;;;5074877;28;20047;-77
2022/01/04 05:20:26;;;;;;;1.10;0.80;;;3.00;89.80;;;;;;5089306;28;20051;-76
2022/01/04 05:22:54;;;;;;;0.80;0.80;;;3.00;89.70;;;;;;5083550;28;20047;-76
2022/01/04 05:25:21;;;;;;;0.60;0.60;;;3.00;89.60;;;;;;5090919;28;21778;-75
2022/01/04 05:27:49;;;;;;;1.00;0.90;;;3.00;89.60;;;;;;5076603;28;20052;-76
2022/01/04 05:30:16;;;;;;;1.42;0.88;;;3.00;89.50;;;;;;5085863;28;20044;-75
2022/01/04 05:32:44;;;;;;;0.90;0.90;;;3.00;89.50;;;;;;5077431;28;20036;-76
2022/01/04 05:35:11;;;;;;;0.80;0.80;;;3.00;89.60;;;;;;5082992;28;20044;-75
2022/01/04 05:37:39;;;;;;;0.70;0.70;;;3.00;89.60;;;;;;5092293;28;20056;-76
2022/01/04 05:40:07;;;;;;;0.60;0.60;;;2.90;89.60;;;;;;5087698;28;20040;-76
2022/01/04 05:42:35;;;;;;;0.50;0.50;;;2.90;89.60;;;;;;5072522;28;20404;-76
2022/01/04 05:45:03;;;;;;;0.35;0.30;;;2.90;89.60;;;;;;5079853;28;20047;-76
2022/01/04 05:47:31;;;;;;;1.77;0.40;;;2.90;89.60;;;;;;5081390;28;20048;-76
2022/01/04 05:49:59;;;;;;;0.55;0.40;;;2.90;89.50;;;;;;5076301;28;20510;-76
2022/01/04 05:52:26;;;;;;;0.65;0.40;;;2.80;89.40;;;;;;5073701;28;20395;-76
2022/01/04 05:54:54;;;;;;;0.28;0.28;;;2.80;89.50;;;;;;5079344;28;20045;-76
2022/01/04 05:57:21;;;;;;;0.40;0.40;;;2.80;89.40;;;;;;5080075;28;20048;-76
2022/01/04 05:59:49;;;;;;;0.73;0.73;;;2.80;89.40;;;;;;5090761;28;20036;-76
2022/01/04 06:02:17;;;;;;;0.50;0.50;;;2.70;89.30;;;;;;5081316;28;20052;-76
2022/01/04 06:04:44;;;;;;;1.33;0.60;;;2.70;89.20;;;;;;5084034;28;20056;-75
2022/01/04 06:07:12;;;;;;;2.42;0.60;;;2.70;89.10;;;;;;5091017;28;20052;-75
2022/01/04 06:09:46;;;;;;;1.95;0.88;;;2.60;89.10;;;;;;5060096;28;20036;-75
2022/01/04 06:14:56;;;;;;;1.92;0.63;;;2.50;89.20;;;;;;5079092;28;20040;-75
2022/01/04 06:17:28;;;;;;;1.65;0.55;;;2.50;89.30;;;;;;5077438;28;20055;-75
2022/01/04 06:19:58;;;;;;;1.35;1.10;;;2.50;89.30;;;;;;5091513;28;20055;-74
2022/01/04 06:22:27;;;;;;;1.77;1.10;;;2.50;89.40;;;;;;5074405;28;20043;-75
2022/01/04 06:24:56;;;;;;;2.08;1.67;;;2.40;89.40;;;;;;5064883;28;20391;-75
2022/01/04 06:27:24;;;;;;;1.77;1.65;;;2.40;89.50;;;;;;5079962;28;20040;-75
2022/01/04 06:29:52;;;;;;;2.63;1.80;;;2.40;89.60;;;;;;5079293;28;20060;-75
2022/01/04 06:32:20;;;;;;;2.20;1.85;;;2.30;89.70;;;;;;5090371;28;20059;-74
2022/01/04 06:34:47;;;;;;;3.97;2.42;;;2.30;89.80;;;;;;5079139;28;20537;-75
2022/01/04 06:37:15;;;;;;;2.60;2.40;;;2.30;89.80;;;;;;5074539;28;20492;-75
2022/01/04 06:39:43;;;;;;;2.63;2.08;;;2.30;89.90;;;;;;5075547;28;20048;-75
2022/01/04 06:42:12;;;;;;;2.67;2.17;;;2.30;89.90;;;;;;5078169;28;20052;-75
2022/01/04 06:44:43;;;;;;;3.90;2.28;;;2.30;90.00;;;;;;5059352;28;20048;-75
2022/01/04 06:47:11;;;;;;;3.35;2.58;;;2.30;90.00;;;;;;5072472;28;20047;-75
2022/01/04 06:49:39;;;;;;;3.88;3.03;;;2.30;90.00;;;;;;5078976;28;20051;-75
2022/01/04 06:52:08;;;;;;;3.53;3.03;;;2.30;90.10;;;;;;5071973;28;20051;-75
2022/01/04 06:54:36;;;;;;;3.30;3.00;;;2.30;90.10;;;;;;5082250;28;20051;-75
2022/01/04 06:57:04;;;;;;;3.30;3.00;;;2.30;90.10;;;;;;5080901;28;20052;-75
2022/01/04 06:59:32;;;;;;;5.85;3.60;;;2.30;90.20;;;;;;5080619;28;20056;-76
2022/01/04 07:02:01;;;;;;;3.95;3.40;;;2.30;90.30;;;;;;5083513;28;20040;-76
2022/01/04 07:04:29;;;;;;;4.85;3.20;;;2.30;90.30;;;;;;5086427;28;20036;-75
2022/01/04 07:06:56;;;;;;;3.95;3.55;;;2.30;90.40;;;;;;5072887;28;20044;-75
2022/01/04 07:09:24;;;;;;;5.22;3.03;;;2.30;90.40;;;;;;5078393;28;20419;-75
2022/01/04 07:11:52;;;;;;;6.03;2.90;;;2.30;90.50;;;;;;5082008;28;20056;-75
2022/01/04 07:14:20;;;;;;;3.78;2.55;;;2.30;90.50;;;;;;5081454;28;20051;-76
2022/01/04 07:16:47;;;;;;;3.63;2.85;;;2.20;90.50;;;;;;5077008;28;20402;-75
2022/01/04 07:19:15;;;;;;;5.97;2.45;;;2.20;90.50;;;;;;5101188;28;20408;-76
2022/01/04 07:21:43;;;;;;;6.05;3.38;;;2.20;90.50;;;;;;5070136;28;20063;-77
2022/01/04 07:24:11;;;;;;;6.07;3.15;;;2.20;90.50;;;;;;5083971;28;20039;-74
2022/01/04 07:26:38;;;;;;;6.05;2.90;;;2.20;90.50;;;;;;5074367;28;20052;-75
2022/01/04 07:29:06;;;;;;;2.83;2.08;;;2.20;90.50;;;;;;5072568;28;20503;-75
2022/01/04 07:31:33;;;;;;;6.70;2.28;;;2.20;90.40;;;;;;5082201;28;20044;-74
2022/01/04 07:34:01;;;;;;;4.80;2.03;;;2.20;90.40;;;;;;5079586;28;20036;-74
2022/01/04 07:36:30;;;;;;;5.22;1.83;;;2.20;90.40;;;;;;5078114;28;20063;-74
2022/01/04 07:38:58;;;;;;;3.90;1.63;;;2.10;90.20;;;;;;5059639;28;20056;-74
2022/01/04 07:41:26;;;;;;;4.90;1.63;;;2.10;89.90;;;;;;5079660;28;20036;-75
2022/01/04 07:43:55;;;;;;;3.15;1.42;;;2.10;89.80;;;;;;5085930;28;20063;-74
2022/01/04 07:46:23;;;;;;;4.30;1.20;;;2.10;89.50;;;;;;5087221;28;20517;-75
2022/01/04 07:48:52;;;;;;;10.57;1.30;;;2.00;89.10;;;;;;5086838;28;20059;-75
2022/01/04 07:51:19;;;;;;;3.17;1.20;;;2.00;88.80;;;;;;5070162;28;20059;-74
2022/01/04 07:53:47;;;;;;;1.83;0.90;;;2.00;88.50;;;;;;5064716;28;20059;-75
2022/01/04 07:56:15;;;;;;;7.30;1.17;;;2.00;88.00;;;;;;5081813;28;20048;-75
2022/01/04 07:58:42;;;;;;;1.42;0.90;;;1.90;87.50;;;;;;5087157;28;20486;-75
2022/01/04 08:01:10;;;;;;;5.32;1.35;;;1.90;87.20;;;;;;5070526;28;20096;-75
2022/01/04 08:03:38;;;;;;;1.77;0.90;;;1.80;87.20;;;;;;5072151;28;20048;-75
2022/01/04 08:06:05;;;;;;;5.43;0.98;;;1.80;87.20;;;;;;5080060;28;20048;-75
2022/01/04 08:08:33;;;;;;;1.85;0.98;;;1.80;87.10;;;;;;5072290;28;20044;-75
2022/01/04 08:11:01;;;;;;;5.15;1.38;;;1.70;87.10;;;;;;5087364;28;20032;-75
2022/01/04 08:13:30;;;;;;;2.88;0.88;;;1.70;87.00;;;;;;5078575;28;20604;-75
2022/01/04 08:15:57;;;;;;;5.95;0.90;;;1.60;86.90;;;;;;5071998;28;20373;-75
2022/01/04 08:18:25;;;;;;;8.10;1.13;;;1.60;86.90;;;;;;5088650;28;20045;-75
2022/01/04 08:20:57;;;;;;;10.43;0.98;;;1.60;86.50;;;;;;5078656;28;20052;-75
2022/01/04 08:23:25;;;;;;;3.35;0.90;;;1.50;86.10;;;;;;5087117;28;20052;-75
2022/01/04 08:25:54;;;;;;;4.43;1.13;;;1.50;86.10;;;;;;5074800;28;20056;-75
2022/01/04 08:28:22;;;;;;;7.10;1.20;;;1.50;86.10;;;;;;5079743;28;20518;-75
2022/01/04 08:30:50;;;;;;;7.03;1.50;;;1.50;86.00;;;;;;5074709;28;20044;-75
2022/01/04 08:33:36;;;;;;;6.35;1.70;;;1.40;85.80;;;;;;5087612;28;20044;-75
2022/01/04 08:36:04;;;;;;;8.27;1.50;;;1.40;85.70;;;;;;5083558;28;20044;-75
2022/01/04 08:38:32;;;;;;;3.55;1.08;;;1.40;85.80;;;;;;5083559;28;20040;-75
2022/01/04 08:40:59;;;;;;;6.47;1.25;;;1.30;85.70;;;;;;5082957;28;20081;-75
2022/01/04 08:43:27;;;;;;;3.97;1.20;;;1.30;85.60;;;;;;5089094;28;20055;-75
2022/01/04 08:45:55;;;;;;;3.60;0.93;;;1.20;85.70;;;;;;5078715;28;20033;-74
2022/01/04 08:48:23;;;;;;;6.50;1.35;;;1.20;85.80;;;;;;5074658;28;20454;-74
2022/01/04 08:50:50;;;;;;;8.48;1.33;;;1.10;85.80;;;;;;5085248;28;20041;-74
2022/01/04 08:53:18;;;;;;;4.57;1.42;;;1.10;85.80;;;;;;5078775;28;20049;-74
2022/01/04 08:55:47;;;;;;;4.40;1.02;;;1.00;85.90;;;;;;5079823;28;20522;-75
2022/01/04 08:58:15;;;;;;;6.10;1.00;;;0.90;85.90;;;;;;5075563;28;20057;-74
2022/01/04 09:00:43;;;;;;;3.25;0.90;;;0.90;86.00;;;;;;5084516;28;20392;-74
2022/01/04 09:03:11;;;;;;;7.43;1.38;;;0.80;86.10;;;;;;5077137;28;20403;-75
2022/01/04 09:05:39;;;;;;;7.10;1.40;;;0.80;86.20;;;;;;5079396;28;20037;-75
2022/01/04 09:08:06;;;;;;;4.47;1.20;;;0.80;86.30;;;;;;5072676;28;20411;-75
2022/01/04 09:10:34;;;;;;;6.18;1.23;;;0.80;86.40;;;;;;5082314;28;20032;-75
2022/01/04 09:13:16;;;;;;;4.15;0.98;;;0.70;86.40;;;;;;5087958;28;20055;-75
2022/01/04 09:18:43;;;;;;;3.58;1.25;;;0.70;86.50;;;;;;5081195;28;20055;-75
2022/01/04 09:18:48;;;;;;;6.40;1.65;;;0.70;86.50;;;;;;5088962;28;20059;-75
2022/01/04 09:21:28;;;;;;;8.20;1.30;;;0.70;86.50;;;;;;5090928;28;20487;-75
2022/01/04 09:24:00;;;;;;;6.30;1.30;;;0.70;86.30;;;;;;5090569;28;20055;-75
2022/01/04 09:26:28;;;;;;;13.57;1.70;;;0.70;86.20;;;;;;5090667;28;20418;-75
2022/01/04 09:28:56;;;;;;;8.35;1.48;;;0.70;86.20;;;;;;5090528;28;20044;-75
2022/01/04 09:31:25;;;;;;;7.80;1.55;;;0.60;86.30;;;;;;5089550;28;20044;-75
2022/01/04 09:33:55;;;;;;;3.72;1.52;;;0.60;86.30;;;;;;5090349;28;20435;-76
2022/01/04 09:36:34;;;;;;;12.63;1.58;;;0.60;86.40;;;;;;5089646;28;20505;-75
2022/01/04 09:39:05;;;;;;;8.68;1.80;;;0.50;86.40;;;;;;5092689;28;20047;-75
2022/01/04 09:41:33;;;;;;;8.45;1.42;;;0.60;86.50;;;;;;5094638;28;20549;-75
2022/01/04 09:44:02;;;;;;;7.90;2.03;;;0.50;86.50;;;;;;5094162;28;20518;-75
2022/01/04 09:46:31;;;;;;;7.85;2.03;;;0.50;86.50;;;;;;5094403;28;20407;-76
2022/01/04 09:48:59;;;;;;;21.45;2.65;;;0.50;86.60;;;;;;5093804;28;20055;-76
2022/01/04 09:51:27;;;;;;;9.15;2.45;;;0.50;86.60;;;;;;5094232;28;20063;-76
2022/01/04 09:53:56;;;;;;;13.07;2.60;;;0.50;86.60;;;;;;5093534;28;20483;-76
2022/01/04 09:56:23;;;;;;;2.97;1.55;;;0.50;86.60;;;;;;5075817;28;20051;-76
2022/01/04 09:58:51;;;;;;;8.55;1.80;;;0.50;86.70;;;;;;5093986;28;20036;-76
2022/01/04 10:01:21;;;;;;;5.05;1.80;;;0.50;86.80;;;;;;5093206;28;20593;-76
2022/01/04 10:04:09;;;;;;;15.63;1.90;;;0.50;86.80;;;;;;5078482;28;20036;-76
2022/01/04 10:06:39;;;;;;;11.50;1.80;;;0.50;86.90;;;;;;5081158;28;20044;-76
2022/01/04 10:09:11;;;;;;;7.57;1.42;;;0.50;87.00;;;;;;5070782;28;20062;-78
2022/01/04 10:11:44;;;;;;;6.15;1.25;;;0.60;86.90;;;;;;5087530;28;20409;-76
2022/01/04 10:14:24;;;;;;;;;;;0.70;86.80;;;;;;5092838;28;20059;-76
2022/01/04 10:16:57;;;;;;;7.43;1.67;;;0.80;86.50;;;;;;5090228;28;19928;-76
2022/01/04 10:19:34;;;;;;;9.95;1.50;;;0.90;86.00;;;;;;5085100;28;20055;-76
2022/01/04 10:22:32;;;;;;;6.72;1.50;;;1.00;85.90;;;;;;5066007;28;20222;-76
2022/01/04 10:25:03;;;;;;;7.53;1.30;;;1.00;85.80;;;;;;5075302;28;20071;-76
2022/01/04 10:27:40;;;;;;;10.18;1.63;;;1.10;85.80;;;;;;5064868;28;20051;-76
2022/01/04 10:30:28;;;;;;;5.85;1.40;;;1.10;85.60;;;;;;5093162;28;20063;-76
2022/01/04 10:33:09;;;;;;;8.93;1.90;;;1.20;85.60;;;;;;5093255;28;20044;-76
2022/01/04 10:35:39;;;;;;;8.82;1.90;;;1.20;85.60;;;;;;5071649;28;20044;-76
2022/01/04 10:38:27;;;;;;;10.48;2.53;;;1.30;85.40;;;;;;5059050;28;20071;-76
2022/01/04 10:41:17;;;;;;;9.50;1.83;;;1.30;85.30;;;;;;5080840;28;20052;-76
2022/01/04 10:43:50;;;;;;;8.55;1.55;;;1.50;85.20;;;;;;5066150;28;20487;-76
2022/01/04 10:46:43;;;;;;;9.00;1.58;;;1.50;85.10;;;;;;5074748;28;20070;-76
2022/01/04 10:49:21;;;;;;;8.07;1.50;;;1.60;85.00;;;;;;5087149;28;20064;-75
2022/01/04 10:52:07;;;;;;;10.60;1.80;;;1.80;85.00;;;;;;5092345;28;20051;-75
2022/01/04 10:54:34;;;;;;;7.07;1.67;;;1.80;84.80;;;;;;5090756;28;20519;-76
2022/01/04 10:57:04;;;;;;;5.95;1.42;;;1.90;84.70;;;;;;5091703;28;20497;-75
2022/01/04 10:59:33;;;;;;;9.13;1.98;;;2.00;84.50;;;;;;5092988;28;20110;-75
2022/01/04 11:02:00;;;;;;;8.02;1.95;;;2.10;84.20;;;;;;5093512;28;20491;-75
2022/01/04 11:04:29;;;;;;;11.63;3.05;;;2.10;83.70;;;;;;5093507;28;20056;-75
2022/01/04 11:07:00;;;;;;;9.13;2.50;;;2.20;83.50;;;;;;5093066;28;20043;-75
2022/01/04 11:09:29;;;;;;;6.57;1.48;;;2.30;83.50;;;;;;5092295;28;20043;-77
2022/01/04 11:11:57;;;;;;;8.05;1.80;;;2.40;83.20;;;;;;5092027;28;20514;-76
2022/01/04 11:14:25;;;;;;;18.83;2.40;;;2.50;82.80;;;;;;5091972;28;20399;-75
2022/01/04 11:16:53;;;;;;;10.63;1.77;;;2.50;82.40;;;;;;5085792;28;20414;-75
2022/01/04 11:19:21;;;;;;;16.73;1.98;;;2.60;82.20;;;;;;5092039;28;20048;-76
2022/01/04 11:21:50;;;;;;;7.85;1.95;;;2.70;82.20;;;;;;5091697;28;20052;-75
2022/01/04 11:24:17;;;;;;;8.35;1.50;;;2.80;82.30;;;;;;5091621;28;20060;-74
2022/01/04 11:26:48;;;;;;;18.35;2.13;;;2.80;82.10;;;;;;5090723;28;20059;-75
2022/01/04 11:29:17;;;;;;;5.85;1.55;;;3.00;81.60;;;;;;5088024;28;20055;-76
2022/01/04 11:31:48;;;;;;;8.90;1.90;;;3.10;81.60;;;;;;5091661;28;20048;-76
2022/01/04 11:34:17;;;;;;;8.60;1.35;;;3.20;81.10;;;;;;5089445;28;20063;-76
2022/01/04 11:36:50;;;;;;;8.43;1.98;;;3.30;80.70;;;;;;5090059;28;20052;-75
2022/01/04 11:39:36;;;;;;;14.15;2.17;;;3.30;80.70;;;;;;5073559;28;20056;-76
2022/01/04 11:42:30;;;;;;;12.52;2.08;;;3.50;80.60;;;;;;5090665;28;20055;-76
2022/01/04 11:44:59;;;;;;;10.85;2.22;;;3.90;80.60;;;;;;5090056;28;20051;-75
2022/01/04 11:47:29;;;;;;;8.88;1.88;;;4.20;80.50;;;;;;5088397;28;20052;-75
2022/01/04 11:50:13;;;;;;;14.00;2.25;;;4.70;80.50;;;;;;5063132;28;20044;-75
2022/01/04 11:52:42;;;;;;;13.43;2.30;;;5.10;80.10;;;;;;5080357;28;20510;-76
2022/01/04 11:55:29;;;;;;;8.68;1.75;;;5.40;79.20;;;;;;5080151;28;20491;-76
2022/01/04 11:58:01;;;;;;;14.90;2.38;;;5.70;79.10;;;;;;5079137;28;20040;-76
2022/01/04 12:00:32;;;;;;;12.70;2.25;;;6.00;77.40;;;;;;5085348;28;20047;-76
2022/01/04 12:03:01;;;;;;;11.70;1.92;;;6.20;76.70;;;;;;5081985;28;20032;-76
2022/01/04 12:05:29;;;;;;;11.60;1.30;;;6.30;76.10;;;;;;5061423;28;20058;-76
2022/01/04 12:08:14;;;;;;;17.13;2.58;;;6.50;74.80;;;;;;5081761;28;20067;-76
2022/01/04 12:10:42;;;;;;;15.65;2.50;;;6.70;74.10;;;;;;5051602;28;20045;-75
2022/01/04 12:13:18;;;;;;;17.92;2.53;;;6.90;73.10;;;;;;5033078;28;20649;-76
2022/01/04 12:15:57;;;;;;;14.70;2.55;;;7.10;72.20;;;;;;5064813;28;20043;-76
2022/01/04 12:18:34;;;;;;;14.00;2.38;;;7.20;69.60;;;;;;5071746;28;20052;-76
2022/01/04 12:21:14;;;;;;;16.40;2.30;;;7.10;68.20;;;;;;5053040;28;20045;-76
2022/01/04 12:23:48;;;;;;;10.52;1.92;;;7.00;67.30;;;;;;5080044;28;20040;-75
2022/01/04 12:26:16;;;;;;;14.15;2.15;;;7.00;68.50;;;;;;5060899;28;20064;-75
2022/01/04 12:29:01;;;;;;;10.57;2.15;;;7.20;67.40;;;;;;5083221;28;20510;-75
2022/01/04 12:31:44;;;;;;;13.70;2.28;;;7.20;65.20;;;;;;5091737;28;20081;-76
2022/01/04 12:34:25;;;;;;;;;;;7.30;63.50;;;;;;5092578;28;20067;-75
2022/01/04 12:36:52;;;;;;;12.18;2.58;;;7.10;62.00;;;;;;5092239;28;20318;-75
2022/01/04 12:39:22;;;;;;;12.85;2.60;;;7.00;62.30;;;;;;5091385;28;20067;-75
2022/01/04 12:41:54;;;;;;;15.75;2.55;;;6.80;63.00;;;;;;5091487;28;20051;-75
2022/01/04 12:44:25;;;;;;;11.02;2.00;;;6.60;63.40;;;;;;5074206;28;20399;-75
2022/01/04 12:46:53;;;;;;;18.50;2.47;;;6.40;62.20;;;;;;5091265;28;20044;-75
2022/01/04 12:49:23;;;;;;;16.15;2.40;;;6.50;61.80;;;;;;5091939;28;20063;-75
2022/01/04 12:51:56;;;;;;;16.73;3.13;;;6.40;61.10;;;;;;5091885;28;20044;-75
2022/01/04 12:54:27;;;;;;;17.52;2.65;;;6.30;61.30;;;;;;5091115;28;20063;-75
2022/01/04 12:56:59;;;;;;;15.13;2.40;;;6.00;61.20;;;;;;5091814;28;20048;-75
2022/01/04 12:59:26;;;;;;;13.40;2.28;;;5.70;60.00;;;;;;5091839;28;20048;-75
2022/01/04 13:01:57;;;;;;;13.10;2.00;;;5.60;59.90;;;;;;5091564;28;20044;-75
2022/01/04 13:04:27;;;;;;;19.75;2.35;;;5.60;59.60;;;;;;5091918;28;20384;-75
2022/01/04 13:06:56;;;;;;;12.80;2.10;;;5.60;60.20;;;;;;5091820;28;20040;-75
2022/01/04 13:09:25;;;;;;;10.48;1.85;;;5.40;60.50;;;;;;5091811;28;20048;-75
2022/01/04 13:11:58;;;;;;;8.55;1.85;;;5.50;60.90;;;;;;5091889;28;20039;-75
2022/01/04 13:14:34;;;;;;;17.05;2.58;;;5.50;60.80;;;;;;5095908;28;20055;-75